sensor_id;sensor_type;location;lat;lon;timestamp;P1;durP1;ratioP1;P2;durP2;ratioP2
70444;SDS011;57902;49.638;11.070;2024-03-02T00:01:18;27.45;;;11.10;;
70444;SDS011;57902;49.638;11.070;2024-03-02T00:03:45;29.60;;;10.93;;
70444;SDS011;57902;49.638;11.070;2024-03-02T00:06:12;25.55;;;11.80;;
70444;SDS011;57902;49.638;11.070;2024-03-02T00:08:39;30.55;;;12.35;;
70444;SDS011;57902;49.638;11.070;2024-03-02T00:11:06;31.13;;;11.60;;
70444;SDS011;57902;49.638;11.070;2024-03-02T00:13:33;27.73;;;11.27;;
70444;SDS011;57902;49.638;11.070;2024-03-02T00:16:01;29.35;;;11.35;;
70444;SDS011;57902;49.638;11.070;2024-03-02T00:18:31;30.48;;;12.77;;
70444;SDS011;57902;49.638;11.070;2024-03-02T00:21:00;30.63;;;12.48;;
70444;SDS011;57902;49.638;11.070;2024-03-02T00:23:32;29.92;;;12.27;;
70444;SDS011;57902;49.638;11.070;2024-03-02T00:26:01;27.13;;;11.13;;
70444;SDS011;57902;49.638;11.070;2024-03-02T00:28:32;28.25;;;11.63;;
70444;SDS011;57902;49.638;11.070;2024-03-02T00:31:13;26.38;;;10.73;;
70444;SDS011;57902;49.638;11.070;2024-03-02T00:36:26;27.58;;;10.82;;
70444;SDS011;57902;49.638;11.070;2024-03-02T00:38:54;28.23;;;11.65;;
70444;SDS011;57902;49.638;11.070;2024-03-02T00:44:00;27.83;;;11.18;;
70444;SDS011;57902;49.638;11.070;2024-03-02T00:46:38;30.15;;;12.15;;
70444;SDS011;57902;49.638;11.070;2024-03-02T00:49:11;25.77;;;10.63;;
70444;SDS011;57902;49.638;11.070;2024-03-02T00:51:44;29.42;;;11.45;;
70444;SDS011;57902;49.638;11.070;2024-03-02T00:54:13;27.80;;;11.35;;
70444;SDS011;57902;49.638;11.070;2024-03-02T00:56:41;29.65;;;11.40;;
70444;SDS011;57902;49.638;11.070;2024-03-02T00:59:09;30.08;;;10.80;;
70444;SDS011;57902;49.638;11.070;2024-03-02T01:01:36;25.25;;;10.63;;
70444;SDS011;57902;49.638;11.070;2024-03-02T01:04:03;25.48;;;10.32;;
70444;SDS011;57902;49.638;11.070;2024-03-02T01:06:30;29.70;;;12.48;;
70444;SDS011;57902;49.638;11.070;2024-03-02T01:08:57;30.30;;;11.68;;
70444;SDS011;57902;49.638;11.070;2024-03-02T01:11:24;26.73;;;10.25;;
70444;SDS011;57902;49.638;11.070;2024-03-02T01:13:51;27.65;;;11.27;;
70444;SDS011;57902;49.638;11.070;2024-03-02T01:16:18;26.40;;;11.40;;
70444;SDS011;57902;49.638;11.070;2024-03-02T01:18:45;28.25;;;11.50;;
70444;SDS011;57902;49.638;11.070;2024-03-02T01:21:13;29.60;;;11.20;;
70444;SDS011;57902;49.638;11.070;2024-03-02T01:23:39;29.88;;;11.48;;
70444;SDS011;57902;49.638;11.070;2024-03-02T01:26:06;27.45;;;11.70;;
70444;SDS011;57902;49.638;11.070;2024-03-02T01:28:33;28.23;;;11.07;;
70444;SDS011;57902;49.638;11.070;2024-03-02T01:31:00;29.52;;;11.57;;
70444;SDS011;57902;49.638;11.070;2024-03-02T01:33:28;29.67;;;11.70;;
70444;SDS011;57902;49.638;11.070;2024-03-02T01:35:54;26.88;;;10.70;;
70444;SDS011;57902;49.638;11.070;2024-03-02T01:38:21;26.25;;;10.75;;
70444;SDS011;57902;49.638;11.070;2024-03-02T01:40:47;30.20;;;11.70;;
70444;SDS011;57902;49.638;11.070;2024-03-02T01:43:14;30.48;;;11.32;;
70444;SDS011;57902;49.638;11.070;2024-03-02T01:45:41;26.60;;;11.43;;
70444;SDS011;57902;49.638;11.070;2024-03-02T01:48:07;28.13;;;11.57;;
70444;SDS011;57902;49.638;11.070;2024-03-02T01:50:34;28.50;;;10.93;;
70444;SDS011;57902;49.638;11.070;2024-03-02T01:53:01;30.52;;;12.10;;
70444;SDS011;57902;49.638;11.070;2024-03-02T01:55:31;30.20;;;12.25;;
70444;SDS011;57902;49.638;11.070;2024-03-02T01:57:59;31.15;;;13.27;;
70444;SDS011;57902;49.638;11.070;2024-03-02T02:00:26;28.30;;;11.18;;
70444;SDS011;57902;49.638;11.070;2024-03-02T02:02:53;28.13;;;12.18;;
70444;SDS011;57902;49.638;11.070;2024-03-02T02:05:20;27.95;;;11.45;;
70444;SDS011;57902;49.638;11.070;2024-03-02T02:07:47;29.83;;;12.23;;
70444;SDS011;57902;49.638;11.070;2024-03-02T02:10:13;29.88;;;12.82;;
70444;SDS011;57902;49.638;11.070;2024-03-02T02:12:40;28.08;;;11.60;;
70444;SDS011;57902;49.638;11.070;2024-03-02T02:17:49;31.50;;;11.30;;
70444;SDS011;57902;49.638;11.070;2024-03-02T02:20:16;27.33;;;11.85;;
70444;SDS011;57902;49.638;11.070;2024-03-02T02:25:39;28.30;;;11.43;;
70444;SDS011;57902;49.638;11.070;2024-03-02T02:28:06;28.70;;;12.05;;
70444;SDS011;57902;49.638;11.070;2024-03-02T02:30:32;32.78;;;12.35;;
70444;SDS011;57902;49.638;11.070;2024-03-02T02:33:00;31.45;;;12.35;;
70444;SDS011;57902;49.638;11.070;2024-03-02T02:35:26;30.95;;;11.18;;
70444;SDS011;57902;49.638;11.070;2024-03-02T02:37:53;28.95;;;11.98;;
70444;SDS011;57902;49.638;11.070;2024-03-02T02:40:21;27.58;;;11.38;;
70444;SDS011;57902;49.638;11.070;2024-03-02T02:42:48;27.73;;;12.00;;
70444;SDS011;57902;49.638;11.070;2024-03-02T02:45:16;29.30;;;12.32;;
70444;SDS011;57902;49.638;11.070;2024-03-02T02:47:42;28.15;;;11.70;;
70444;SDS011;57902;49.638;11.070;2024-03-02T02:50:10;31.05;;;12.45;;
70444;SDS011;57902;49.638;11.070;2024-03-02T02:52:39;33.10;;;12.38;;
70444;SDS011;57902;49.638;11.070;2024-03-02T02:55:11;30.25;;;12.40;;
70444;SDS011;57902;49.638;11.070;2024-03-02T02:57:39;31.92;;;12.63;;
70444;SDS011;57902;49.638;11.070;2024-03-02T03:00:07;29.88;;;12.30;;
70444;SDS011;57902;49.638;11.070;2024-03-02T03:02:42;31.50;;;11.80;;
70444;SDS011;57902;49.638;11.070;2024-03-02T03:05:11;28.40;;;11.18;;
70444;SDS011;57902;49.638;11.070;2024-03-02T03:07:41;29.88;;;11.50;;
70444;SDS011;57902;49.638;11.070;2024-03-02T03:10:10;29.48;;;12.02;;
70444;SDS011;57902;49.638;11.070;2024-03-02T03:12:36;28.58;;;12.15;;
70444;SDS011;57902;49.638;11.070;2024-03-02T03:15:03;27.75;;;12.40;;
70444;SDS011;57902;49.638;11.070;2024-03-02T03:17:34;31.05;;;11.63;;
70444;SDS011;57902;49.638;11.070;2024-03-02T03:20:02;30.92;;;12.13;;
70444;SDS011;57902;49.638;11.070;2024-03-02T03:22:30;27.73;;;11.93;;
70444;SDS011;57902;49.638;11.070;2024-03-02T03:24:58;32.15;;;12.52;;
70444;SDS011;57902;49.638;11.070;2024-03-02T03:27:24;27.55;;;11.20;;
70444;SDS011;57902;49.638;11.070;2024-03-02T03:29:51;28.20;;;11.70;;
70444;SDS011;57902;49.638;11.070;2024-03-02T03:32:18;28.25;;;10.75;;
70444;SDS011;57902;49.638;11.070;2024-03-02T03:34:44;30.20;;;11.63;;
70444;SDS011;57902;49.638;11.070;2024-03-02T03:37:11;29.70;;;12.23;;
70444;SDS011;57902;49.638;11.070;2024-03-02T03:39:38;26.75;;;11.40;;
70444;SDS011;57902;49.638;11.070;2024-03-02T03:42:04;28.92;;;10.93;;
70444;SDS011;57902;49.638;11.070;2024-03-02T03:44:31;25.48;;;11.30;;
70444;SDS011;57902;49.638;11.070;2024-03-02T03:46:58;27.35;;;11.02;;
70444;SDS011;57902;49.638;11.070;2024-03-02T03:49:25;27.15;;;10.95;;
70444;SDS011;57902;49.638;11.070;2024-03-02T03:51:51;27.15;;;11.32;;
70444;SDS011;57902;49.638;11.070;2024-03-02T03:54:18;26.60;;;11.13;;
70444;SDS011;57902;49.638;11.070;2024-03-02T03:56:44;26.88;;;11.00;;
70444;SDS011;57902;49.638;11.070;2024-03-02T03:59:11;25.80;;;10.68;;
70444;SDS011;57902;49.638;11.070;2024-03-02T04:01:38;28.05;;;10.70;;
70444;SDS011;57902;49.638;11.070;2024-03-02T04:04:04;25.92;;;10.15;;
70444;SDS011;57902;49.638;11.070;2024-03-02T04:06:31;25.45;;;10.60;;
70444;SDS011;57902;49.638;11.070;2024-03-02T04:08:58;25.38;;;10.75;;
70444;SDS011;57902;49.638;11.070;2024-03-02T04:11:24;25.33;;;10.48;;
70444;SDS011;57902;49.638;11.070;2024-03-02T04:13:51;25.08;;;10.38;;
70444;SDS011;57902;49.638;11.070;2024-03-02T04:16:20;24.08;;;9.93;;
70444;SDS011;57902;49.638;11.070;2024-03-02T04:18:46;23.98;;;10.75;;
70444;SDS011;57902;49.638;11.070;2024-03-02T04:21:13;23.40;;;9.35;;
70444;SDS011;57902;49.638;11.070;2024-03-02T04:23:40;25.60;;;10.63;;
70444;SDS011;57902;49.638;11.070;2024-03-02T04:26:06;25.38;;;9.68;;
70444;SDS011;57902;49.638;11.070;2024-03-02T04:28:33;22.98;;;9.43;;
70444;SDS011;57902;49.638;11.070;2024-03-02T04:30:59;22.33;;;9.35;;
70444;SDS011;57902;49.638;11.070;2024-03-02T04:33:26;21.55;;;9.02;;
70444;SDS011;57902;49.638;11.070;2024-03-02T04:35:52;22.38;;;10.02;;
70444;SDS011;57902;49.638;11.070;2024-03-02T04:38:19;26.75;;;10.10;;
70444;SDS011;57902;49.638;11.070;2024-03-02T04:40:45;24.50;;;9.23;;
70444;SDS011;57902;49.638;11.070;2024-03-02T04:43:12;23.95;;;9.18;;
70444;SDS011;57902;49.638;11.070;2024-03-02T04:45:42;26.60;;;9.38;;
70444;SDS011;57902;49.638;11.070;2024-03-02T04:48:09;22.13;;;8.93;;
70444;SDS011;57902;49.638;11.070;2024-03-02T04:50:35;21.80;;;8.93;;
70444;SDS011;57902;49.638;11.070;2024-03-02T04:53:02;25.40;;;9.60;;
70444;SDS011;57902;49.638;11.070;2024-03-02T04:55:29;21.75;;;9.57;;
70444;SDS011;57902;49.638;11.070;2024-03-02T04:57:55;23.88;;;8.98;;
70444;SDS011;57902;49.638;11.070;2024-03-02T05:00:22;22.83;;;9.77;;
70444;SDS011;57902;49.638;11.070;2024-03-02T05:02:49;21.70;;;8.65;;
70444;SDS011;57902;49.638;11.070;2024-03-02T05:05:16;21.92;;;9.02;;
70444;SDS011;57902;49.638;11.070;2024-03-02T05:07:42;23.10;;;9.70;;
70444;SDS011;57902;49.638;11.070;2024-03-02T05:10:10;21.90;;;8.57;;
70444;SDS011;57902;49.638;11.070;2024-03-02T05:12:38;21.73;;;9.23;;
70444;SDS011;57902;49.638;11.070;2024-03-02T05:15:11;19.67;;;8.15;;
70444;SDS011;57902;49.638;11.070;2024-03-02T05:17:40;24.52;;;8.90;;
70444;SDS011;57902;49.638;11.070;2024-03-02T05:20:10;21.90;;;8.85;;
70444;SDS011;57902;49.638;11.070;2024-03-02T05:22:37;25.27;;;9.40;;
70444;SDS011;57902;49.638;11.070;2024-03-02T05:25:06;22.60;;;9.75;;
70444;SDS011;57902;49.638;11.070;2024-03-02T05:27:33;19.77;;;8.18;;
70444;SDS011;57902;49.638;11.070;2024-03-02T05:30:00;22.02;;;8.60;;
70444;SDS011;57902;49.638;11.070;2024-03-02T05:32:26;22.55;;;8.40;;
70444;SDS011;57902;49.638;11.070;2024-03-02T05:34:53;21.00;;;8.63;;
70444;SDS011;57902;49.638;11.070;2024-03-02T05:37:20;21.48;;;8.43;;
70444;SDS011;57902;49.638;11.070;2024-03-02T05:39:46;21.45;;;8.63;;
70444;SDS011;57902;49.638;11.070;2024-03-02T05:42:13;22.90;;;9.00;;
70444;SDS011;57902;49.638;11.070;2024-03-02T05:44:39;21.42;;;7.90;;
70444;SDS011;57902;49.638;11.070;2024-03-02T05:47:06;20.60;;;8.45;;
70444;SDS011;57902;49.638;11.070;2024-03-02T05:52:01;21.98;;;8.25;;
70444;SDS011;57902;49.638;11.070;2024-03-02T05:54:29;19.08;;;7.65;;
70444;SDS011;57902;49.638;11.070;2024-03-02T05:56:55;19.48;;;8.68;;
70444;SDS011;57902;49.638;11.070;2024-03-02T05:59:22;21.42;;;8.02;;
70444;SDS011;57902;49.638;11.070;2024-03-02T06:01:49;20.85;;;8.23;;
70444;SDS011;57902;49.638;11.070;2024-03-02T06:04:18;19.85;;;7.93;;
70444;SDS011;57902;49.638;11.070;2024-03-02T06:06:45;23.33;;;8.30;;
70444;SDS011;57902;49.638;11.070;2024-03-02T06:09:11;22.95;;;8.88;;
70444;SDS011;57902;49.638;11.070;2024-03-02T06:11:42;21.83;;;8.63;;
70444;SDS011;57902;49.638;11.070;2024-03-02T06:14:09;20.48;;;8.32;;
70444;SDS011;57902;49.638;11.070;2024-03-02T06:16:35;18.58;;;7.63;;
70444;SDS011;57902;49.638;11.070;2024-03-02T06:19:02;20.08;;;8.20;;
70444;SDS011;57902;49.638;11.070;2024-03-02T06:21:29;18.75;;;8.00;;
70444;SDS011;57902;49.638;11.070;2024-03-02T06:23:56;20.23;;;8.38;;
70444;SDS011;57902;49.638;11.070;2024-03-02T06:26:23;20.02;;;7.90;;
70444;SDS011;57902;49.638;11.070;2024-03-02T06:28:51;19.83;;;7.88;;
70444;SDS011;57902;49.638;11.070;2024-03-02T06:31:18;18.38;;;7.45;;
70444;SDS011;57902;49.638;11.070;2024-03-02T06:33:44;18.38;;;7.95;;
70444;SDS011;57902;49.638;11.070;2024-03-02T06:36:11;17.67;;;7.13;;
70444;SDS011;57902;49.638;11.070;2024-03-02T06:38:38;19.10;;;7.75;;
70444;SDS011;57902;49.638;11.070;2024-03-02T06:41:09;18.30;;;7.57;;
70444;SDS011;57902;49.638;11.070;2024-03-02T06:43:35;19.15;;;7.55;;
70444;SDS011;57902;49.638;11.070;2024-03-02T06:46:02;18.77;;;8.07;;
70444;SDS011;57902;49.638;11.070;2024-03-02T06:48:29;21.63;;;7.97;;
70444;SDS011;57902;49.638;11.070;2024-03-02T06:50:56;17.23;;;7.78;;
70444;SDS011;57902;49.638;11.070;2024-03-02T06:53:26;19.23;;;8.18;;
70444;SDS011;57902;49.638;11.070;2024-03-02T06:55:53;19.77;;;7.88;;
70444;SDS011;57902;49.638;11.070;2024-03-02T06:58:20;18.55;;;7.95;;
70444;SDS011;57902;49.638;11.070;2024-03-02T07:00:46;19.45;;;7.72;;
70444;SDS011;57902;49.638;11.070;2024-03-02T07:03:14;18.08;;;7.13;;
70444;SDS011;57902;49.638;11.070;2024-03-02T07:05:41;18.55;;;7.38;;
70444;SDS011;57902;49.638;11.070;2024-03-02T07:08:07;20.15;;;8.20;;
70444;SDS011;57902;49.638;11.070;2024-03-02T07:10:34;19.75;;;8.15;;
70444;SDS011;57902;49.638;11.070;2024-03-02T07:13:00;19.95;;;7.55;;
70444;SDS011;57902;49.638;11.070;2024-03-02T07:15:27;19.27;;;8.18;;
70444;SDS011;57902;49.638;11.070;2024-03-02T07:17:54;19.70;;;7.50;;
70444;SDS011;57902;49.638;11.070;2024-03-02T07:20:20;20.65;;;7.93;;
70444;SDS011;57902;49.638;11.070;2024-03-02T07:22:47;16.65;;;7.05;;
70444;SDS011;57902;49.638;11.070;2024-03-02T07:25:14;20.30;;;8.25;;
70444;SDS011;57902;49.638;11.070;2024-03-02T07:27:43;18.30;;;7.45;;
70444;SDS011;57902;49.638;11.070;2024-03-02T07:30:13;18.30;;;8.45;;
70444;SDS011;57902;49.638;11.070;2024-03-02T07:32:42;19.02;;;8.50;;
70444;SDS011;57902;49.638;11.070;2024-03-02T07:35:14;19.08;;;7.60;;
70444;SDS011;57902;49.638;11.070;2024-03-02T07:37:42;16.70;;;7.45;;
70444;SDS011;57902;49.638;11.070;2024-03-02T07:40:09;18.02;;;7.80;;
70444;SDS011;57902;49.638;11.070;2024-03-02T07:42:40;16.98;;;8.02;;
70444;SDS011;57902;49.638;11.070;2024-03-02T07:45:07;17.52;;;7.65;;
70444;SDS011;57902;49.638;11.070;2024-03-02T07:47:34;17.88;;;8.13;;
70444;SDS011;57902;49.638;11.070;2024-03-02T07:50:01;19.90;;;8.18;;
70444;SDS011;57902;49.638;11.070;2024-03-02T07:52:28;18.42;;;8.20;;
70444;SDS011;57902;49.638;11.070;2024-03-02T07:54:56;20.13;;;9.05;;
70444;SDS011;57902;49.638;11.070;2024-03-02T07:57:22;19.27;;;7.82;;
70444;SDS011;57902;49.638;11.070;2024-03-02T07:59:49;17.10;;;7.75;;
70444;SDS011;57902;49.638;11.070;2024-03-02T08:02:16;18.95;;;7.78;;
70444;SDS011;57902;49.638;11.070;2024-03-02T08:04:42;19.80;;;8.25;;
70444;SDS011;57902;49.638;11.070;2024-03-02T08:07:09;18.70;;;8.30;;
70444;SDS011;57902;49.638;11.070;2024-03-02T08:09:35;20.27;;;9.63;;
70444;SDS011;57902;49.638;11.070;2024-03-02T08:12:02;18.13;;;8.32;;
70444;SDS011;57902;49.638;11.070;2024-03-02T08:14:29;19.00;;;7.97;;
70444;SDS011;57902;49.638;11.070;2024-03-02T08:16:56;18.70;;;7.93;;
70444;SDS011;57902;49.638;11.070;2024-03-02T08:19:22;19.95;;;7.75;;
70444;SDS011;57902;49.638;11.070;2024-03-02T08:21:49;16.38;;;7.15;;
70444;SDS011;57902;49.638;11.070;2024-03-02T08:24:16;18.08;;;7.20;;
70444;SDS011;57902;49.638;11.070;2024-03-02T08:26:42;16.65;;;7.25;;
70444;SDS011;57902;49.638;11.070;2024-03-02T08:29:09;16.98;;;6.85;;
70444;SDS011;57902;49.638;11.070;2024-03-02T08:31:36;16.38;;;7.03;;
70444;SDS011;57902;49.638;11.070;2024-03-02T08:34:06;17.52;;;7.25;;
70444;SDS011;57902;49.638;11.070;2024-03-02T08:36:33;15.77;;;6.43;;
70444;SDS011;57902;49.638;11.070;2024-03-02T08:38:59;18.88;;;8.13;;
70444;SDS011;57902;49.638;11.070;2024-03-02T08:41:26;16.95;;;7.35;;
70444;SDS011;57902;49.638;11.070;2024-03-02T08:43:52;15.70;;;6.78;;
70444;SDS011;57902;49.638;11.070;2024-03-02T08:46:19;18.25;;;7.25;;
70444;SDS011;57902;49.638;11.070;2024-03-02T08:48:46;18.58;;;7.30;;
70444;SDS011;57902;49.638;11.070;2024-03-02T08:51:12;16.73;;;6.82;;
70444;SDS011;57902;49.638;11.070;2024-03-02T08:53:39;16.77;;;6.70;;
70444;SDS011;57902;49.638;11.070;2024-03-02T08:56:05;16.50;;;6.82;;
70444;SDS011;57902;49.638;11.070;2024-03-02T08:58:32;16.65;;;6.47;;
70444;SDS011;57902;49.638;11.070;2024-03-02T09:00:59;15.63;;;6.60;;
70444;SDS011;57902;49.638;11.070;2024-03-02T09:03:25;14.07;;;5.88;;
70444;SDS011;57902;49.638;11.070;2024-03-02T09:05:52;16.60;;;6.65;;
70444;SDS011;57902;49.638;11.070;2024-03-02T09:08:19;14.55;;;6.47;;
70444;SDS011;57902;49.638;11.070;2024-03-02T09:10:45;15.00;;;6.55;;
70444;SDS011;57902;49.638;11.070;2024-03-02T09:13:12;17.00;;;6.88;;
70444;SDS011;57902;49.638;11.070;2024-03-02T09:15:39;16.02;;;6.53;;
70444;SDS011;57902;49.638;11.070;2024-03-02T09:18:06;16.90;;;7.40;;
70444;SDS011;57902;49.638;11.070;2024-03-02T09:20:33;12.55;;;5.82;;
70444;SDS011;57902;49.638;11.070;2024-03-02T09:23:00;14.25;;;5.90;;
70444;SDS011;57902;49.638;11.070;2024-03-02T09:25:26;13.50;;;5.95;;
70444;SDS011;57902;49.638;11.070;2024-03-02T09:27:53;24.15;;;5.38;;
70444;SDS011;57902;49.638;11.070;2024-03-02T09:30:19;16.25;;;5.97;;
70444;SDS011;57902;49.638;11.070;2024-03-02T09:32:46;13.93;;;5.55;;
70444;SDS011;57902;49.638;11.070;2024-03-02T09:35:15;11.73;;;5.07;;
70444;SDS011;57902;49.638;11.070;2024-03-02T09:37:42;13.02;;;5.35;;
70444;SDS011;57902;49.638;11.070;2024-03-02T09:40:08;18.27;;;7.32;;
70444;SDS011;57902;49.638;11.070;2024-03-02T09:42:36;18.13;;;8.73;;
70444;SDS011;57902;49.638;11.070;2024-03-02T09:45:03;14.82;;;6.65;;
70444;SDS011;57902;49.638;11.070;2024-03-02T09:47:30;11.88;;;5.22;;
70444;SDS011;57902;49.638;11.070;2024-03-02T09:49:56;10.65;;;4.68;;
70444;SDS011;57902;49.638;11.070;2024-03-02T09:52:23;17.70;;;5.82;;
70444;SDS011;57902;49.638;11.070;2024-03-02T09:54:49;12.20;;;5.25;;
70444;SDS011;57902;49.638;11.070;2024-03-02T09:57:16;12.75;;;5.25;;
70444;SDS011;57902;49.638;11.070;2024-03-02T09:59:42;11.15;;;4.63;;
70444;SDS011;57902;49.638;11.070;2024-03-02T10:02:09;12.55;;;5.13;;
70444;SDS011;57902;49.638;11.070;2024-03-02T10:04:36;11.23;;;4.45;;
70444;SDS011;57902;49.638;11.070;2024-03-02T10:07:15;10.23;;;4.70;;
70444;SDS011;57902;49.638;11.070;2024-03-02T10:09:44;13.52;;;4.55;;
70444;SDS011;57902;49.638;11.070;2024-03-02T10:12:12;10.85;;;4.80;;
70444;SDS011;57902;49.638;11.070;2024-03-02T10:14:40;11.80;;;4.82;;
70444;SDS011;57902;49.638;11.070;2024-03-02T10:17:08;11.93;;;4.35;;
70444;SDS011;57902;49.638;11.070;2024-03-02T10:19:36;11.10;;;4.53;;
70444;SDS011;57902;49.638;11.070;2024-03-02T10:22:04;11.73;;;4.35;;
70444;SDS011;57902;49.638;11.070;2024-03-02T10:24:36;9.35;;;3.92;;
70444;SDS011;57902;49.638;11.070;2024-03-02T10:27:14;11.50;;;4.65;;
70444;SDS011;57902;49.638;11.070;2024-03-02T10:29:41;9.02;;;4.07;;
70444;SDS011;57902;49.638;11.070;2024-03-02T10:32:09;11.88;;;4.65;;
70444;SDS011;57902;49.638;11.070;2024-03-02T10:34:39;11.25;;;4.60;;
70444;SDS011;57902;49.638;11.070;2024-03-02T10:37:11;13.18;;;4.38;;
70444;SDS011;57902;49.638;11.070;2024-03-02T10:39:39;9.50;;;4.35;;
70444;SDS011;57902;49.638;11.070;2024-03-02T10:44:33;12.20;;;5.88;;
70444;SDS011;57902;49.638;11.070;2024-03-02T10:47:02;14.15;;;4.53;;
70444;SDS011;57902;49.638;11.070;2024-03-02T10:49:30;11.77;;;4.78;;
70444;SDS011;57902;49.638;11.070;2024-03-02T10:51:58;12.02;;;5.00;;
70444;SDS011;57902;49.638;11.070;2024-03-02T10:54:25;11.05;;;4.50;;
70444;SDS011;57902;49.638;11.070;2024-03-02T10:56:53;10.95;;;4.50;;
70444;SDS011;57902;49.638;11.070;2024-03-02T10:59:24;10.30;;;4.55;;
70444;SDS011;57902;49.638;11.070;2024-03-02T11:01:55;12.32;;;5.00;;
70444;SDS011;57902;49.638;11.070;2024-03-02T11:04:31;11.65;;;4.75;;
70444;SDS011;57902;49.638;11.070;2024-03-02T11:07:04;11.00;;;5.20;;
70444;SDS011;57902;49.638;11.070;2024-03-02T11:09:34;14.43;;;5.05;;
70444;SDS011;57902;49.638;11.070;2024-03-02T11:14:45;9.70;;;4.57;;
70444;SDS011;57902;49.638;11.070;2024-03-02T11:17:13;10.80;;;4.45;;
70444;SDS011;57902;49.638;11.070;2024-03-02T11:19:44;13.43;;;4.25;;
70444;SDS011;57902;49.638;11.070;2024-03-02T11:22:14;11.85;;;4.38;;
70444;SDS011;57902;49.638;11.070;2024-03-02T11:24:48;14.75;;;4.90;;
70444;SDS011;57902;49.638;11.070;2024-03-02T11:27:58;10.07;;;4.32;;
70444;SDS011;57902;49.638;11.070;2024-03-02T11:30:48;11.73;;;4.55;;
70444;SDS011;57902;49.638;11.070;2024-03-02T11:32:59;10.05;;;3.50;;
70444;SDS011;57902;49.638;11.070;2024-03-02T11:35:27;9.55;;;4.18;;
70444;SDS011;57902;49.638;11.070;2024-03-02T11:37:56;10.25;;;4.40;;
70444;SDS011;57902;49.638;11.070;2024-03-02T11:42:52;8.93;;;4.20;;
70444;SDS011;57902;49.638;11.070;2024-03-02T11:47:50;10.55;;;4.00;;
70444;SDS011;57902;49.638;11.070;2024-03-02T11:50:30;9.93;;;4.25;;
70444;SDS011;57902;49.638;11.070;2024-03-02T11:53:00;10.35;;;4.60;;
70444;SDS011;57902;49.638;11.070;2024-03-02T11:55:27;11.90;;;5.32;;
70444;SDS011;57902;49.638;11.070;2024-03-02T11:57:56;10.90;;;5.10;;
70444;SDS011;57902;49.638;11.070;2024-03-02T12:00:25;11.52;;;5.15;;
70444;SDS011;57902;49.638;11.070;2024-03-02T12:03:11;13.23;;;5.88;;
70444;SDS011;57902;49.638;11.070;2024-03-02T12:08:06;11.82;;;4.72;;
70444;SDS011;57902;49.638;11.070;2024-03-02T12:10:34;11.50;;;5.15;;
70444;SDS011;57902;49.638;11.070;2024-03-02T12:13:02;13.75;;;5.68;;
70444;SDS011;57902;49.638;11.070;2024-03-02T12:15:31;11.52;;;4.82;;
70444;SDS011;57902;49.638;11.070;2024-03-02T12:17:59;9.95;;;4.32;;
70444;SDS011;57902;49.638;11.070;2024-03-02T12:20:27;10.27;;;4.50;;
70444;SDS011;57902;49.638;11.070;2024-03-02T12:25:24;12.73;;;4.45;;
70444;SDS011;57902;49.638;11.070;2024-03-02T12:27:52;10.57;;;4.38;;
70444;SDS011;57902;49.638;11.070;2024-03-02T12:30:20;9.00;;;3.70;;
70444;SDS011;57902;49.638;11.070;2024-03-02T12:32:48;9.20;;;4.03;;
70444;SDS011;57902;49.638;11.070;2024-03-02T12:35:15;11.35;;;4.25;;
70444;SDS011;57902;49.638;11.070;2024-03-02T12:37:47;10.43;;;4.68;;
70444;SDS011;57902;49.638;11.070;2024-03-02T12:40:15;13.02;;;5.07;;
70444;SDS011;57902;49.638;11.070;2024-03-02T12:42:48;12.88;;;5.10;;
70444;SDS011;57902;49.638;11.070;2024-03-02T12:45:16;11.98;;;5.50;;
70444;SDS011;57902;49.638;11.070;2024-03-02T12:47:50;15.90;;;5.85;;
70444;SDS011;57902;49.638;11.070;2024-03-02T12:50:17;14.25;;;6.10;;
70444;SDS011;57902;49.638;11.070;2024-03-02T12:52:50;15.25;;;5.75;;
70444;SDS011;57902;49.638;11.070;2024-03-02T12:55:17;14.07;;;5.90;;
70444;SDS011;57902;49.638;11.070;2024-03-02T12:57:45;13.35;;;5.80;;
70444;SDS011;57902;49.638;11.070;2024-03-02T13:00:15;12.10;;;5.97;;
70444;SDS011;57902;49.638;11.070;2024-03-02T13:02:45;16.98;;;6.55;;
70444;SDS011;57902;49.638;11.070;2024-03-02T13:05:12;16.48;;;6.82;;
70444;SDS011;57902;49.638;11.070;2024-03-02T13:07:39;14.60;;;5.43;;
70444;SDS011;57902;49.638;11.070;2024-03-02T13:10:07;14.65;;;6.38;;
70444;SDS011;57902;49.638;11.070;2024-03-02T13:12:35;16.40;;;6.32;;
70444;SDS011;57902;49.638;11.070;2024-03-02T13:15:02;15.52;;;6.00;;
70444;SDS011;57902;49.638;11.070;2024-03-02T13:17:30;14.15;;;6.47;;
70444;SDS011;57902;49.638;11.070;2024-03-02T13:20:03;14.73;;;5.97;;
70444;SDS011;57902;49.638;11.070;2024-03-02T13:22:37;15.90;;;5.82;;
70444;SDS011;57902;49.638;11.070;2024-03-02T13:25:03;15.77;;;6.72;;
70444;SDS011;57902;49.638;11.070;2024-03-02T13:27:31;17.58;;;6.93;;
70444;SDS011;57902;49.638;11.070;2024-03-02T13:29:59;16.08;;;5.70;;
70444;SDS011;57902;49.638;11.070;2024-03-02T13:32:25;18.45;;;6.95;;
70444;SDS011;57902;49.638;11.070;2024-03-02T13:34:52;17.70;;;6.80;;
70444;SDS011;57902;49.638;11.070;2024-03-02T13:37:20;16.00;;;5.88;;
70444;SDS011;57902;49.638;11.070;2024-03-02T13:39:46;17.05;;;6.50;;
70444;SDS011;57902;49.638;11.070;2024-03-02T13:42:13;15.27;;;5.78;;
70444;SDS011;57902;49.638;11.070;2024-03-02T13:44:44;16.33;;;6.22;;
70444;SDS011;57902;49.638;11.070;2024-03-02T13:47:16;16.45;;;6.38;;
70444;SDS011;57902;49.638;11.070;2024-03-02T13:49:43;15.18;;;7.18;;
70444;SDS011;57902;49.638;11.070;2024-03-02T13:52:12;17.33;;;6.38;;
70444;SDS011;57902;49.638;11.070;2024-03-02T13:54:40;16.50;;;6.50;;
70444;SDS011;57902;49.638;11.070;2024-03-02T13:57:08;17.15;;;5.95;;
70444;SDS011;57902;49.638;11.070;2024-03-02T13:59:36;14.30;;;5.43;;
70444;SDS011;57902;49.638;11.070;2024-03-02T14:02:04;15.32;;;5.90;;
70444;SDS011;57902;49.638;11.070;2024-03-02T14:04:32;14.38;;;5.85;;
70444;SDS011;57902;49.638;11.070;2024-03-02T14:07:00;14.43;;;6.28;;
70444;SDS011;57902;49.638;11.070;2024-03-02T14:09:27;14.90;;;5.80;;
70444;SDS011;57902;49.638;11.070;2024-03-02T14:11:54;13.80;;;5.72;;
70444;SDS011;57902;49.638;11.070;2024-03-02T14:14:22;16.05;;;6.47;;
70444;SDS011;57902;49.638;11.070;2024-03-02T14:16:49;15.05;;;6.30;;
70444;SDS011;57902;49.638;11.070;2024-03-02T14:19:15;18.38;;;6.82;;
70444;SDS011;57902;49.638;11.070;2024-03-02T14:21:42;17.85;;;6.60;;
70444;SDS011;57902;49.638;11.070;2024-03-02T14:24:09;17.52;;;6.65;;
70444;SDS011;57902;49.638;11.070;2024-03-02T14:26:36;14.20;;;5.78;;
70444;SDS011;57902;49.638;11.070;2024-03-02T14:29:03;14.32;;;4.97;;
70444;SDS011;57902;49.638;11.070;2024-03-02T14:31:30;15.02;;;5.78;;
70444;SDS011;57902;49.638;11.070;2024-03-02T14:33:57;15.68;;;5.47;;
70444;SDS011;57902;49.638;11.070;2024-03-02T14:36:24;13.63;;;6.10;;
70444;SDS011;57902;49.638;11.070;2024-03-02T14:38:52;17.05;;;6.15;;
70444;SDS011;57902;49.638;11.070;2024-03-02T14:41:18;13.73;;;5.78;;
70444;SDS011;57902;49.638;11.070;2024-03-02T14:43:45;18.00;;;6.35;;
70444;SDS011;57902;49.638;11.070;2024-03-02T14:46:11;16.90;;;6.47;;
70444;SDS011;57902;49.638;11.070;2024-03-02T14:48:38;15.75;;;6.20;;
70444;SDS011;57902;49.638;11.070;2024-03-02T14:51:05;18.85;;;7.15;;